createdAt,value
2018-02-08T00:00:34.964Z,99.90
2018-02-08T00:03:03.321Z,99.90
2018-02-08T00:05:31.706Z,99.90
2018-02-08T00:08:00.067Z,99.90
2018-02-08T00:10:28.445Z,99.90
2018-02-08T00:12:56.823Z,99.90
2018-02-08T00:15:27.704Z,99.90
2018-02-08T00:17:56.066Z,99.90
2018-02-08T00:20:24.469Z,99.90
2018-02-08T00:22:53.621Z,99.90
2018-02-08T00:25:22.317Z,99.90
2018-02-08T00:27:50.695Z,99.90
2018-02-08T00:30:19.623Z,99.90
2018-02-08T00:32:49.005Z,99.90
2018-02-08T00:35:17.609Z,99.90
2018-02-08T00:37:46.778Z,99.90
2018-02-08T00:40:15.282Z,99.90
2018-02-08T00:42:44.730Z,99.90
2018-02-08T00:45:13.081Z,99.90
2018-02-08T00:47:42.240Z,99.90
2018-02-08T00:50:10.746Z,99.90
2018-02-08T00:52:39.881Z,99.90
2018-02-08T00:55:08.262Z,99.90
2018-02-08T00:57:36.681Z,99.90
2018-02-08T01:00:05.614Z,99.90
2018-02-08T01:02:34.021Z,99.90
2018-02-08T01:05:02.466Z,99.90
2018-02-08T01:07:31.605Z,99.90
2018-02-08T01:10:00.071Z,99.90
2018-02-08T01:12:28.447Z,99.90
2018-02-08T01:14:56.972Z,99.90
2018-02-08T01:17:26.181Z,99.90
2018-02-08T01:19:55.340Z,99.90
2018-02-08T01:22:23.712Z,99.90
2018-02-08T01:24:52.084Z,99.90
2018-02-08T01:27:20.561Z,99.90
2018-02-08T01:29:48.942Z,99.90
2018-02-08T01:32:17.571Z,99.90
2018-02-08T01:34:46.732Z,99.90
2018-02-08T01:37:15.123Z,99.90
2018-02-08T01:39:43.754Z,99.90
2018-02-08T01:42:12.117Z,99.90
2018-02-08T01:44:41.471Z,99.90
2018-02-08T01:47:09.957Z,99.90
2018-02-08T01:49:45.711Z,99.90
2018-02-08T01:52:14.982Z,99.90
2018-02-08T01:54:43.504Z,99.90
2018-02-08T01:57:11.900Z,99.90
2018-02-08T01:59:41.037Z,99.90
2018-02-08T02:02:09.432Z,99.90
2018-02-08T02:04:37.872Z,99.90
2018-02-08T02:07:06.398Z,99.90
2018-02-08T02:09:34.914Z,99.90
2018-02-08T02:12:04.188Z,99.90
2018-02-08T02:14:32.565Z,99.90
2018-02-08T02:17:01.067Z,99.90
2018-02-08T02:19:29.620Z,99.90
2018-02-08T02:21:58.157Z,99.90
2018-02-08T02:24:26.532Z,99.90
2018-02-08T02:26:55.829Z,99.90
2018-02-08T02:29:24.230Z,99.90
2018-02-08T02:31:52.588Z,99.90
2018-02-08T02:34:20.974Z,99.90
2018-02-08T02:36:49.468Z,99.90
2018-02-08T02:39:17.845Z,99.90
2018-02-08T02:41:46.479Z,99.90
2018-02-08T02:44:15.654Z,99.90
2018-02-08T02:46:44.047Z,99.90
2018-02-08T02:49:12.442Z,99.90
2018-02-08T02:51:41.767Z,99.90
2018-02-08T02:54:10.612Z,99.90
2018-02-08T02:56:39.012Z,99.90
2018-02-08T02:59:08.187Z,99.90
2018-02-08T03:01:36.563Z,99.90
2018-02-08T03:04:05.168Z,99.90
2018-02-08T03:06:34.366Z,99.90
2018-02-08T03:09:03.008Z,99.90
2018-02-08T03:11:31.556Z,99.90
2018-02-08T03:14:00.131Z,99.90
2018-02-08T03:16:29.358Z,99.90
2018-02-08T03:18:57.875Z,99.90
2018-02-08T03:21:26.254Z,99.90
2018-02-08T03:23:54.625Z,99.90
2018-02-08T03:26:23.050Z,99.90
2018-02-08T03:28:51.720Z,99.90
2018-02-08T03:31:21.879Z,99.90
2018-02-08T03:33:50.387Z,99.90
2018-02-08T03:36:18.765Z,99.90
2018-02-08T03:38:47.163Z,99.90
2018-02-08T03:41:15.668Z,99.90
2018-02-08T03:43:44.059Z,99.90
2018-02-08T03:46:12.431Z,99.90
2018-02-08T03:48:40.863Z,99.90
2018-02-08T03:51:09.403Z,99.90
2018-02-08T03:53:37.816Z,99.90
2018-02-08T03:56:06.236Z,99.90
2018-02-08T03:58:34.623Z,99.90
2018-02-08T04:01:03.744Z,99.90
2018-02-08T04:03:32.146Z,99.90
2018-02-08T04:06:00.532Z,99.90
2018-02-08T04:08:28.945Z,99.90
2018-02-08T04:10:58.116Z,99.90
2018-02-08T04:13:28.158Z,99.90
2018-02-08T04:15:57.354Z,99.90
2018-02-08T04:18:25.896Z,99.90
2018-02-08T04:20:54.302Z,99.90
2018-02-08T04:23:22.721Z,99.90
2018-02-08T04:25:51.601Z,99.90
2018-02-08T04:28:20.149Z,99.90
2018-02-08T04:30:49.614Z,99.90
2018-02-08T04:33:18.142Z,99.90
2018-02-08T04:35:47.578Z,99.90
2018-02-08T04:38:18.676Z,99.90
2018-02-08T04:40:58.418Z,99.90
2018-02-08T04:43:38.086Z,99.90
2018-02-08T04:46:18.297Z,99.90
2018-02-08T04:48:46.677Z,99.90
2018-02-08T04:51:15.097Z,99.90
2018-02-08T04:53:44.243Z,99.90
2018-02-08T04:56:13.453Z,99.90
2018-02-08T04:58:42.019Z,99.90
2018-02-08T05:01:10.420Z,99.90
2018-02-08T05:03:38.815Z,99.90
2018-02-08T05:06:07.204Z,99.90
2018-02-08T05:08:35.756Z,99.90
2018-02-08T05:11:04.253Z,99.90
2018-02-08T05:13:32.678Z,99.90
2018-02-08T05:16:01.071Z,99.90
2018-02-08T05:18:29.503Z,99.90
2018-02-08T05:20:58.653Z,99.90
2018-02-08T05:23:27.068Z,99.90
2018-02-08T05:25:56.659Z,99.90
2018-02-08T05:28:25.044Z,99.90
2018-02-08T05:30:54.227Z,99.90
2018-02-08T05:33:22.609Z,99.90
2018-02-08T05:35:50.973Z,99.90
2018-02-08T05:38:20.299Z,99.90
2018-02-08T05:40:48.697Z,99.90
2018-02-08T05:43:17.991Z,99.90
2018-02-08T05:45:47.166Z,99.90
2018-02-08T05:48:15.619Z,99.90
2018-02-08T05:50:44.211Z,99.90
2018-02-08T05:53:12.676Z,99.90
2018-02-08T05:55:41.247Z,99.90
2018-02-08T05:58:09.624Z,99.90
2018-02-08T06:00:38.038Z,99.90
2018-02-08T06:03:06.439Z,99.90
2018-02-08T06:05:36.398Z,99.90
2018-02-08T06:08:04.777Z,99.90
2018-02-08T06:10:33.754Z,99.90
2018-02-08T06:13:02.377Z,99.90
2018-02-08T06:15:30.850Z,99.90
2018-02-08T06:17:59.303Z,99.90
2018-02-08T06:20:27.759Z,99.90
2018-02-08T06:22:56.899Z,99.90
2018-02-08T06:25:25.273Z,99.90
2018-02-08T06:27:53.659Z,99.90
2018-02-08T06:30:22.032Z,99.90
2018-02-08T06:32:50.413Z,99.90
2018-02-08T06:35:18.824Z,99.90
2018-02-08T06:37:47.339Z,99.90
2018-02-08T06:40:16.464Z,99.90
2018-02-08T06:42:44.843Z,99.90
2018-02-08T06:45:13.295Z,99.90
2018-02-08T06:47:41.658Z,99.90
2018-02-08T06:50:10.828Z,99.90
2018-02-08T06:52:39.208Z,99.90
2018-02-08T06:55:07.819Z,99.90
2018-02-08T06:57:36.961Z,99.90
2018-02-08T07:00:04.592Z,99.90
2018-02-08T07:02:32.964Z,99.90
2018-02-08T07:05:01.372Z,99.90
2018-02-08T07:07:30.149Z,99.90
2018-02-08T07:09:58.754Z,99.90
2018-02-08T07:12:27.299Z,99.90
2018-02-08T07:14:56.427Z,99.90
2018-02-08T07:17:24.997Z,99.90
2018-02-08T07:19:54.399Z,99.90
2018-02-08T07:22:22.876Z,99.90
2018-02-08T07:24:51.262Z,99.90
2018-02-08T07:27:19.644Z,99.90
2018-02-08T07:29:48.213Z,99.90
2018-02-08T07:32:16.574Z,99.90
2018-02-08T07:34:44.922Z,99.90
2018-02-08T07:37:13.317Z,99.90
2018-02-08T07:39:41.852Z,99.90
2018-02-08T07:42:10.479Z,99.90
2018-02-08T07:44:39.900Z,99.90
2018-02-08T07:47:08.272Z,99.90
2018-02-08T07:49:36.840Z,99.90
2018-02-08T07:52:05.295Z,99.90
2018-02-08T07:54:33.805Z,99.90
2018-02-08T07:57:02.254Z,99.90
2018-02-08T07:59:30.933Z,99.90
2018-02-08T08:01:59.350Z,99.90
2018-02-08T08:04:27.744Z,99.90
2018-02-08T08:06:56.106Z,99.90
2018-02-08T08:09:25.066Z,99.90
2018-02-08T08:11:53.514Z,99.90
2018-02-08T08:14:21.943Z,99.90
2018-02-08T08:16:50.476Z,99.90
2018-02-08T08:19:18.922Z,99.90
2018-02-08T08:21:47.367Z,99.90
2018-02-08T08:24:15.798Z,99.90
2018-02-08T08:26:44.473Z,99.90
2018-02-08T08:29:13.993Z,99.90
2018-02-08T08:31:42.416Z,99.90
2018-02-08T08:34:10.810Z,99.90
2018-02-08T08:36:40.179Z,99.90
2018-02-08T08:39:08.699Z,99.90
2018-02-08T08:41:38.001Z,99.90
2018-02-08T08:44:07.127Z,99.90
2018-02-08T08:46:35.513Z,99.90
2018-02-08T08:49:03.982Z,99.90
2018-02-08T08:51:32.406Z,99.90
2018-02-08T08:54:00.787Z,99.90
2018-02-08T08:56:29.189Z,99.90
2018-02-08T08:58:58.423Z,99.90
2018-02-08T09:01:26.770Z,99.90
2018-02-08T09:03:56.097Z,99.90
2018-02-08T09:06:24.603Z,99.90
2018-02-08T09:08:53.020Z,99.90
2018-02-08T09:11:22.366Z,99.90
2018-02-08T09:13:50.875Z,99.90
2018-02-08T09:16:19.237Z,99.90
2018-02-08T09:18:47.844Z,99.90
2018-02-08T09:21:16.214Z,99.90
2018-02-08T09:23:44.570Z,99.90
2018-02-08T09:26:12.987Z,99.90
2018-02-08T09:28:41.956Z,99.90
2018-02-08T09:31:10.338Z,99.90
2018-02-08T09:33:38.784Z,99.90
2018-02-08T09:36:07.272Z,99.90
2018-02-08T09:38:35.789Z,99.90
2018-02-08T09:41:04.165Z,99.90
2018-02-08T09:43:32.526Z,99.90
2018-02-08T09:46:00.912Z,99.90
2018-02-08T09:48:29.280Z,99.90
2018-02-08T09:50:57.950Z,99.90
2018-02-08T09:53:26.309Z,99.90
2018-02-08T09:55:54.704Z,99.90
2018-02-08T09:58:23.054Z,99.90
2018-02-08T10:00:52.211Z,99.90
2018-02-08T10:03:20.590Z,99.90
2018-02-08T10:05:48.962Z,99.90
2018-02-08T10:08:17.343Z,99.90
2018-02-08T10:10:45.707Z,99.90
2018-02-08T10:13:14.093Z,99.90
2018-02-08T10:15:42.452Z,99.90
2018-02-08T10:18:10.903Z,99.90
2018-02-08T10:20:39.274Z,99.90
2018-02-08T10:23:07.804Z,99.90
2018-02-08T10:25:36.474Z,99.90
2018-02-08T10:28:04.840Z,99.90
2018-02-08T10:30:33.190Z,99.90
2018-02-08T10:33:02.334Z,99.90
2018-02-08T10:35:30.699Z,99.90
2018-02-08T10:37:59.073Z,99.90
2018-02-08T10:40:27.427Z,99.90
2018-02-08T10:42:56.566Z,99.90
2018-02-08T10:45:24.932Z,99.90
2018-02-08T10:47:53.300Z,99.90
2018-02-08T10:50:21.941Z,99.90
2018-02-08T10:52:50.317Z,99.90
2018-02-08T10:55:18.892Z,99.90
2018-02-08T10:57:47.389Z,99.90
2018-02-08T11:00:16.527Z,99.90
2018-02-08T11:02:44.974Z,99.90
2018-02-08T11:05:14.107Z,99.90
2018-02-08T11:07:42.463Z,99.90
2018-02-08T11:10:10.845Z,99.90
2018-02-08T11:12:39.318Z,99.90
2018-02-08T11:15:07.827Z,99.90
2018-02-08T11:17:36.380Z,99.90
2018-02-08T11:20:04.787Z,99.90
2018-02-08T11:22:33.356Z,99.90
2018-02-08T11:25:01.920Z,99.90
2018-02-08T11:27:30.315Z,99.90
2018-02-08T11:29:58.683Z,99.90
2018-02-08T11:32:27.164Z,99.90
2018-02-08T11:34:55.807Z,99.90
2018-02-08T11:37:24.579Z,99.90
2018-02-08T11:39:52.981Z,99.90
2018-02-08T11:42:21.361Z,99.90
2018-02-08T11:44:49.731Z,99.90
2018-02-08T11:47:18.225Z,99.90
2018-02-08T11:49:46.605Z,99.90
2018-02-08T11:52:15.811Z,99.90
2018-02-08T11:54:44.174Z,99.90
2018-02-08T11:57:13.832Z,99.90
2018-02-08T11:59:42.190Z,99.90
2018-02-08T12:02:10.546Z,99.90
2018-02-08T12:04:39.684Z,99.90
2018-02-08T12:07:08.046Z,99.90
2018-02-08T12:09:36.543Z,99.90
2018-02-08T12:12:05.089Z,99.90
2018-02-08T12:14:33.728Z,99.90
2018-02-08T12:17:02.082Z,99.90
2018-02-08T12:19:30.483Z,99.90
2018-02-08T12:21:58.924Z,99.90
2018-02-08T12:24:27.784Z,99.90
2018-02-08T12:26:57.072Z,99.90
2018-02-08T12:29:25.632Z,99.90
2018-02-08T12:31:54.095Z,99.90
2018-02-08T12:34:22.475Z,99.90
2018-02-08T12:36:50.859Z,99.90
2018-02-08T12:39:19.866Z,99.90
2018-02-08T12:41:48.458Z,99.90
2018-02-08T12:44:16.882Z,99.90
2018-02-08T12:46:45.339Z,99.90
2018-02-08T12:49:14.477Z,99.90
2018-02-08T12:51:42.867Z,99.90
2018-02-08T12:54:11.272Z,97.10
2018-02-08T12:56:39.647Z,97.50
2018-02-08T12:59:08.223Z,98.30
2018-02-08T13:01:36.685Z,97.60
2018-02-08T13:04:05.101Z,97.10
2018-02-08T13:06:33.477Z,95.80
2018-02-08T13:09:02.273Z,93.20
2018-02-08T13:11:31.406Z,94.60
2018-02-08T13:13:59.890Z,94.50
2018-02-08T13:16:28.313Z,93.10
2018-02-08T13:18:56.911Z,92.90
2018-02-08T13:21:26.054Z,95.00
2018-02-08T13:23:54.455Z,95.10
2018-02-08T13:26:22.987Z,92.00
2018-02-08T13:28:51.356Z,94.00
2018-02-08T13:31:30.230Z,93.20
2018-02-08T13:33:58.425Z,93.10
2018-02-08T13:36:29.238Z,92.80
2018-02-08T13:38:57.490Z,90.40
2018-02-08T13:41:25.756Z,92.10
2018-02-08T13:43:54.156Z,94.10
2018-02-08T13:46:22.342Z,94.80
2018-02-08T13:48:51.042Z,96.80
2018-02-08T13:51:24.874Z,98.40
2018-02-08T13:53:57.793Z,97.90
2018-02-08T13:56:31.596Z,97.80
2018-02-08T13:59:16.596Z,94.50
2018-02-08T14:01:49.741Z,94.20
2018-02-08T14:04:17.932Z,95.40
2018-02-08T14:06:46.314Z,97.40
2018-02-08T14:09:14.897Z,99.90
2018-02-08T14:11:43.279Z,99.90
2018-02-08T14:14:11.657Z,99.50
2018-02-08T14:16:40.070Z,99.90
2018-02-08T14:19:08.609Z,99.30
2018-02-08T14:21:37.027Z,99.90
2018-02-08T14:24:05.434Z,99.00
2018-02-08T14:26:34.560Z,98.70
2018-02-08T14:29:02.978Z,98.70
2018-02-08T14:31:31.343Z,98.70
2018-02-08T14:33:59.856Z,96.90
2018-02-08T14:36:29.243Z,98.60
2018-02-08T14:38:57.700Z,98.60
2018-02-08T14:41:26.759Z,99.30
2018-02-08T14:43:55.124Z,99.90
2018-02-08T14:46:24.257Z,99.90
2018-02-08T14:48:52.631Z,99.90
2018-02-08T14:51:21.018Z,99.90
2018-02-08T14:53:49.432Z,99.90
2018-02-08T14:56:17.822Z,99.90
2018-02-08T14:58:46.987Z,99.90
2018-02-08T15:01:15.364Z,99.90
2018-02-08T15:03:43.767Z,99.90
2018-02-08T15:06:12.958Z,99.90
2018-02-08T15:08:41.521Z,99.90
2018-02-08T15:11:09.892Z,99.90
2018-02-08T15:13:38.379Z,99.90
2018-02-08T15:16:06.887Z,99.90
2018-02-08T15:18:35.266Z,99.90
2018-02-08T15:21:03.685Z,99.90
2018-02-08T15:23:32.081Z,99.90
2018-02-08T15:26:00.652Z,99.90
2018-02-08T15:28:29.009Z,99.90
2018-02-08T15:30:58.375Z,99.90
2018-02-08T15:33:26.746Z,99.90
2018-02-08T15:35:55.122Z,99.90
2018-02-08T15:38:23.618Z,99.90
2018-02-08T15:40:52.036Z,99.90
2018-02-08T15:43:20.563Z,99.90
2018-02-08T15:45:49.712Z,99.90
2018-02-08T15:48:18.070Z,99.90
2018-02-08T15:50:47.275Z,99.90
2018-02-08T15:53:16.300Z,99.90
2018-02-08T15:55:44.704Z,99.90
2018-02-08T15:58:13.103Z,99.90
2018-02-08T16:00:41.527Z,99.90
2018-02-08T16:03:10.184Z,99.90
2018-02-08T16:05:39.520Z,99.90
2018-02-08T16:08:08.204Z,99.90
2018-02-08T16:10:36.837Z,99.90
2018-02-08T16:13:06.717Z,99.90
2018-02-08T16:15:35.096Z,99.90
2018-02-08T16:18:03.468Z,99.90
2018-02-08T16:20:31.859Z,99.90
2018-02-08T16:23:00.035Z,99.90
2018-02-08T16:25:28.494Z,99.90
2018-02-08T16:27:57.301Z,99.90
2018-02-08T16:30:25.673Z,99.90
2018-02-08T16:32:53.697Z,99.90
2018-02-08T16:35:22.887Z,99.90
2018-02-08T16:37:52.028Z,99.90
2018-02-08T16:40:20.390Z,99.90
2018-02-08T16:42:48.928Z,99.90
2018-02-08T16:45:18.272Z,99.90
2018-02-08T16:47:46.695Z,99.90
2018-02-08T16:50:15.070Z,99.90
2018-02-08T16:52:43.465Z,99.90
2018-02-08T16:55:11.850Z,99.90
2018-02-08T16:57:40.985Z,99.90
2018-02-08T17:00:09.339Z,99.90
2018-02-08T17:02:37.686Z,99.90
2018-02-08T17:05:06.065Z,99.90
2018-02-08T17:07:35.302Z,99.90
2018-02-08T17:10:03.668Z,99.90
2018-02-08T17:12:32.027Z,99.90
2018-02-08T17:15:01.208Z,99.90
2018-02-08T17:17:29.659Z,99.90
2018-02-08T17:19:58.030Z,99.90
2018-02-08T17:22:26.672Z,99.90
2018-02-08T17:24:55.805Z,99.90
2018-02-08T17:27:24.202Z,99.90
2018-02-08T17:29:52.581Z,99.90
2018-02-08T17:32:20.729Z,99.90
2018-02-08T17:34:49.272Z,99.90
2018-02-08T17:37:18.613Z,99.90
2018-02-08T17:39:46.985Z,99.90
2018-02-08T17:42:15.418Z,99.90
2018-02-08T17:44:43.794Z,99.90
2018-02-08T17:47:12.176Z,99.90
2018-02-08T17:49:40.644Z,99.90
2018-02-08T17:52:13.269Z,99.90
2018-02-08T17:54:41.628Z,99.90
2018-02-08T17:57:10.908Z,99.90
2018-02-08T17:59:39.259Z,99.90
2018-02-08T18:02:07.641Z,99.90
2018-02-08T18:04:36.021Z,99.90
2018-02-08T18:07:04.590Z,99.90
2018-02-08T18:09:33.646Z,99.90
2018-02-08T18:12:02.011Z,99.90
2018-02-08T18:14:31.147Z,99.90
2018-02-08T18:16:59.504Z,99.90
2018-02-08T18:19:27.866Z,99.90
2018-02-08T18:21:56.999Z,99.90
2018-02-08T18:24:25.656Z,99.90
2018-02-08T18:26:54.894Z,99.90
2018-02-08T18:29:23.279Z,99.90
2018-02-08T18:31:51.543Z,99.90
2018-02-08T18:34:20.693Z,99.90
2018-02-08T18:36:49.971Z,99.90
2018-02-08T18:39:18.997Z,99.90
2018-02-08T18:41:47.402Z,99.90
2018-02-08T18:44:15.770Z,99.90
2018-02-08T18:46:44.165Z,99.90
2018-02-08T18:49:12.605Z,99.90
2018-02-08T18:51:41.048Z,99.90
2018-02-08T18:54:09.447Z,99.90
2018-02-08T18:56:37.985Z,99.90
2018-02-08T18:59:06.688Z,99.90
2018-02-08T19:01:35.076Z,99.90
2018-02-08T19:04:04.960Z,99.90
2018-02-08T19:06:33.356Z,99.90
2018-02-08T19:09:01.743Z,99.90
2018-02-08T19:11:30.163Z,99.90
2018-02-08T19:13:59.307Z,99.90
2018-02-08T19:16:27.741Z,99.90
2018-02-08T19:18:56.160Z,99.90
2018-02-08T19:21:25.028Z,99.90
2018-02-08T19:23:53.418Z,99.90
2018-02-08T19:26:21.896Z,99.90
2018-02-08T19:28:50.278Z,99.90
2018-02-08T19:31:18.947Z,99.90
2018-02-08T19:33:47.348Z,99.90
2018-02-08T19:36:15.702Z,99.90
2018-02-08T19:38:44.122Z,99.90
2018-02-08T19:41:12.484Z,99.90
2018-02-08T19:43:40.904Z,99.90
2018-02-08T19:46:10.046Z,99.90
2018-02-08T19:48:38.551Z,99.90
2018-02-08T19:51:06.944Z,99.90
2018-02-08T19:53:35.458Z,99.90
2018-02-08T19:56:04.626Z,99.90
2018-02-08T19:58:33.788Z,99.90
2018-02-08T20:01:02.181Z,99.90
2018-02-08T20:03:30.647Z,99.90
2018-02-08T20:05:59.135Z,99.90
2018-02-08T20:08:27.500Z,99.90
2018-02-08T20:10:56.020Z,99.90
2018-02-08T20:13:24.452Z,99.90
2018-02-08T20:15:52.647Z,99.90
2018-02-08T20:18:21.041Z,99.90
2018-02-08T20:20:49.497Z,99.90
2018-02-08T20:23:17.836Z,99.90
2018-02-08T20:25:46.126Z,99.90
2018-02-08T20:28:14.528Z,99.90
2018-02-08T20:30:57.629Z,99.90
2018-02-08T20:33:25.994Z,99.90
2018-02-08T20:35:54.504Z,99.90
2018-02-08T20:38:22.988Z,99.90
2018-02-08T20:40:51.879Z,99.90
2018-02-08T20:43:26.012Z,99.90
2018-02-08T20:45:54.421Z,99.90
2018-02-08T20:48:23.583Z,99.90
2018-02-08T20:50:52.254Z,99.90
2018-02-08T20:53:20.682Z,99.90
2018-02-08T20:55:50.058Z,99.90
2018-02-08T20:58:18.554Z,99.90
2018-02-08T21:00:48.028Z,99.90
2018-02-08T21:03:16.448Z,99.90
2018-02-08T21:05:46.034Z,99.90
2018-02-08T21:08:14.831Z,99.90
2018-02-08T21:10:43.228Z,99.90
2018-02-08T21:13:11.677Z,99.90
2018-02-08T21:15:40.089Z,99.90
2018-02-08T21:18:08.671Z,99.90
2018-02-08T21:20:37.821Z,99.90
2018-02-08T21:23:06.317Z,99.90
2018-02-08T21:25:35.017Z,99.90
2018-02-08T21:28:04.359Z,99.90
2018-02-08T21:30:32.861Z,99.90
2018-02-08T21:33:01.286Z,99.90
2018-02-08T21:35:30.481Z,99.90
2018-02-08T21:37:59.766Z,99.90
2018-02-08T21:40:28.150Z,99.90
2018-02-08T21:42:57.336Z,99.90
2018-02-08T21:45:25.889Z,99.90
2018-02-08T21:47:54.445Z,99.90
2018-02-08T21:50:22.985Z,99.90
2018-02-08T21:52:52.232Z,99.90
2018-02-08T21:55:20.668Z,99.90
2018-02-08T21:57:50.224Z,99.90
2018-02-08T22:00:19.821Z,99.90
2018-02-08T22:02:48.282Z,99.90
2018-02-08T22:05:17.091Z,99.90
2018-02-08T22:07:45.630Z,99.90
2018-02-08T22:10:14.757Z,99.90
2018-02-08T22:12:43.419Z,99.90
2018-02-08T22:15:13.108Z,99.90
2018-02-08T22:17:41.661Z,99.90
2018-02-08T22:20:10.547Z,99.90
2018-02-08T22:22:40.257Z,99.90
2018-02-08T22:25:09.005Z,99.90
2018-02-08T22:27:37.856Z,99.90
2018-02-08T22:30:06.348Z,99.90
2018-02-08T22:32:36.287Z,99.90
2018-02-08T22:35:04.870Z,99.90
2018-02-08T22:37:34.145Z,99.90
2018-02-08T22:40:02.678Z,99.90
2018-02-08T22:42:31.173Z,99.90
2018-02-08T22:45:00.675Z,99.90
2018-02-08T22:47:29.095Z,99.90
2018-02-08T22:49:58.415Z,99.90
2018-02-08T22:52:27.409Z,99.90
2018-02-08T22:54:55.877Z,99.90
2018-02-08T22:57:24.583Z,99.90
2018-02-08T22:59:53.011Z,99.90
2018-02-08T23:02:21.617Z,99.90
2018-02-08T23:04:51.064Z,99.90
2018-02-08T23:07:20.413Z,99.90
2018-02-08T23:09:50.312Z,99.90
2018-02-08T23:12:18.891Z,99.90
2018-02-08T23:14:47.310Z,99.90
2018-02-08T23:17:16.625Z,99.90
2018-02-08T23:19:45.170Z,99.90
2018-02-08T23:22:13.548Z,99.90
2018-02-08T23:24:42.680Z,99.90
2018-02-08T23:27:11.067Z,99.90
2018-02-08T23:29:39.736Z,99.90
2018-02-08T23:32:09.060Z,99.90
2018-02-08T23:34:37.533Z,99.90
2018-02-08T23:37:05.967Z,99.90
2018-02-08T23:39:34.402Z,99.90
2018-02-08T23:42:03.017Z,99.90
2018-02-08T23:44:31.545Z,99.90
2018-02-08T23:47:00.029Z,99.90
2018-02-08T23:49:28.407Z,99.90
2018-02-08T23:51:56.976Z,99.90
2018-02-08T23:54:25.441Z,99.90
2018-02-08T23:56:54.027Z,99.90
2018-02-08T23:59:22.994Z,99.90
